Time;durP1;ratioP1;P1;durP2;ratioP2;P2;SDS_P1;SDS_P2;PMS_P1;PMS_P2;Temp;Humidity;BMP_temperature;BMP_pressure;BME280_temperature;BME280_humidity;BME280_pressure;Samples;Min_cycle;Max_cycle;Signal;HPM_P1;HPM_P2
2021/11/03 00:02:22;;;;;;;8.38;6.22;;;6.70;99.90;;;;;;5096304;28;20082;-69
2021/11/03 00:04:48;;;;;;;7.72;6.05;;;6.60;99.90;;;;;;5077793;28;20028;-68
2021/11/03 00:07:14;;;;;;;11.35;6.80;;;6.60;99.90;;;;;;5077548;28;20030;-68
2021/11/03 00:09:40;;;;;;;8.48;6.50;;;6.60;99.90;;;;;;5077907;28;20433;-68
2021/11/03 00:12:14;;;;;;;9.35;6.25;;;6.50;99.90;;;;;;5094377;28;20020;-67
2021/11/03 00:14:40;;;;;;;7.13;5.80;;;6.40;99.90;;;;;;5077432;28;20024;-68
2021/11/03 00:17:06;;;;;;;7.07;5.90;;;6.30;99.90;;;;;;5077891;28;20028;-72
2021/11/03 00:19:31;;;;;;;11.75;5.88;;;6.30;99.90;;;;;;5093623;28;20048;-73
2021/11/03 00:21:57;;;;;;;9.45;6.93;;;6.30;99.90;;;;;;5095015;28;20423;-73
2021/11/03 00:24:23;;;;;;;10.15;7.20;;;6.20;99.90;;;;;;5077974;28;20039;-74
2021/11/03 00:26:48;;;;;;;9.35;5.75;;;6.20;99.90;;;;;;5095207;28;20020;-73
2021/11/03 00:29:14;;;;;;;8.27;6.47;;;6.10;99.90;;;;;;5078362;28;20479;-72
2021/11/03 00:31:40;;;;;;;9.15;6.30;;;6.10;99.90;;;;;;5078331;28;20038;-73
2021/11/03 00:34:05;;;;;;;12.40;7.80;;;6.00;99.90;;;;;;5096053;28;20489;-74
2021/11/03 00:36:31;;;;;;;9.02;7.25;;;6.10;99.90;;;;;;5095849;28;20024;-74
2021/11/03 00:38:57;;;;;;;10.02;7.13;;;6.10;99.90;;;;;;5095509;28;20123;-76
2021/11/03 00:41:22;;;;;;;12.57;7.68;;;6.00;99.90;;;;;;5079589;28;20535;-74
2021/11/03 00:43:50;;;;;;;12.45;7.75;;;6.00;99.90;;;;;;5096847;28;20111;-73
2021/11/03 00:46:16;;;;;;;9.60;6.80;;;6.00;99.90;;;;;;5095551;28;20031;-68
2021/11/03 00:48:42;;;;;;;11.35;6.97;;;5.90;99.90;;;;;;5076816;28;20024;-69
2021/11/03 00:51:07;;;;;;;10.57;7.57;;;5.90;99.90;;;;;;5076814;28;20028;-68
2021/11/03 00:53:33;;;;;;;12.07;8.10;;;5.90;99.90;;;;;;5076701;28;20032;-68
2021/11/03 00:55:59;;;;;;;12.43;7.10;;;5.90;99.90;;;;;;5076726;28;20126;-68
2021/11/03 00:58:24;;;;;;;10.48;7.43;;;5.90;99.90;;;;;;5076706;28;20398;-67
2021/11/03 01:00:50;;;;;;;9.23;7.20;;;5.90;99.90;;;;;;5076830;28;20043;-69
2021/11/03 01:03:15;;;;;;;10.00;6.68;;;5.90;99.90;;;;;;5093664;28;20031;-68
2021/11/03 01:05:41;;;;;;;12.73;7.63;;;5.80;99.90;;;;;;5076893;28;20024;-69
2021/11/03 01:08:09;;;;;;;11.68;7.97;;;5.80;99.90;;;;;;5077058;28;20101;-67
2021/11/03 01:10:36;;;;;;;10.05;7.63;;;5.70;99.90;;;;;;5094807;28;20028;-68
2021/11/03 01:13:02;;;;;;;15.88;8.70;;;5.70;99.90;;;;;;5093280;28;20023;-68
2021/11/03 01:15:28;;;;;;;9.65;7.95;;;5.70;99.90;;;;;;5094515;28;20082;-67
2021/11/03 01:17:55;;;;;;;11.38;8.48;;;5.70;99.90;;;;;;5093145;28;20032;-67
2021/11/03 01:20:21;;;;;;;12.55;7.63;;;5.70;99.90;;;;;;5076059;28;20502;-68
2021/11/03 01:22:47;;;;;;;11.80;8.27;;;5.70;99.90;;;;;;5076357;28;20303;-73
2021/11/03 01:25:14;;;;;;;11.43;8.30;;;5.70;99.90;;;;;;5077155;28;20020;-76
2021/11/03 01:27:39;;;;;;;9.15;8.00;;;5.60;99.90;;;;;;5093482;28;20020;-75
2021/11/03 01:30:07;;;;;;;12.70;9.57;;;5.70;99.90;;;;;;5094310;28;20028;-71
2021/11/03 01:32:33;;;;;;;11.07;8.60;;;5.60;99.90;;;;;;5076378;28;20028;-75
2021/11/03 01:34:58;;;;;;;10.55;8.23;;;5.60;99.90;;;;;;5094581;28;20023;-74
2021/11/03 01:37:24;;;;;;;12.82;8.82;;;5.60;99.90;;;;;;5100746;28;20016;-75
2021/11/03 01:39:49;;;;;;;15.20;9.50;;;5.60;99.90;;;;;;5105391;28;20109;-74
2021/11/03 01:42:15;;;;;;;9.88;7.95;;;5.60;99.90;;;;;;5094686;28;20116;-76
2021/11/03 01:44:40;;;;;;;11.45;8.48;;;5.60;99.90;;;;;;5095261;28;20021;-74
2021/11/03 01:47:44;;;;;;;16.52;9.95;;;5.60;99.90;;;;;;5094984;28;20036;-74
2021/11/03 01:50:18;;;;;;;10.70;8.23;;;5.60;99.90;;;;;;5093989;28;20070;-74
2021/11/03 01:52:46;;;;;;;14.95;8.93;;;5.60;99.90;;;;;;5076629;28;20106;-73
2021/11/03 01:55:13;;;;;;;13.00;10.20;;;5.60;99.90;;;;;;5092825;28;20386;-68
2021/11/03 01:57:47;;;;;;;12.43;9.63;;;5.60;99.90;;;;;;5075374;28;20494;-69
2021/11/03 02:00:19;;;;;;;12.73;8.85;;;5.70;99.90;;;;;;5075396;28;20027;-69
2021/11/03 02:02:45;;;;;;;15.00;9.68;;;5.70;99.90;;;;;;5092477;28;20110;-68
2021/11/03 02:05:13;;;;;;;12.20;9.50;;;5.70;99.90;;;;;;5092508;28;20024;-68
2021/11/03 02:07:39;;;;;;;15.55;9.60;;;5.70;99.90;;;;;;5075317;28;20073;-67
2021/11/03 02:10:06;;;;;;;13.63;10.60;;;5.70;99.90;;;;;;5075256;28;20031;-68
2021/11/03 02:12:32;;;;;;;14.50;10.07;;;5.70;99.90;;;;;;5075326;28;20089;-69
2021/11/03 02:14:58;;;;;;;13.63;10.25;;;5.80;99.90;;;;;;5075176;28;20031;-69
2021/11/03 02:17:24;;;;;;;11.65;9.98;;;5.80;99.90;;;;;;5092031;28;20016;-68
2021/11/03 02:19:53;;;;;;;14.05;10.57;;;5.90;99.90;;;;;;5074742;28;20052;-68
2021/11/03 02:22:24;;;;;;;15.30;10.48;;;5.90;99.90;;;;;;5092001;28;20471;-68
2021/11/03 02:25:07;;;;;;;13.30;10.52;;;5.80;99.90;;;;;;5091721;28;20058;-67
2021/11/03 02:27:37;;;;;;;18.45;10.52;;;5.80;99.90;;;;;;5091888;28;20054;-68
2021/11/03 02:30:04;;;;;;;16.98;9.98;;;5.80;99.90;;;;;;5075072;28;20023;-68
2021/11/03 02:32:32;;;;;;;13.27;10.18;;;5.80;99.90;;;;;;5074933;28;20142;-69
2021/11/03 02:34:58;;;;;;;14.88;10.68;;;5.80;99.90;;;;;;5074791;28;20378;-68
2021/11/03 02:37:27;;;;;;;13.88;9.82;;;5.80;99.90;;;;;;5092674;28;20030;-68
2021/11/03 02:40:04;;;;;;;12.00;9.23;;;5.80;99.90;;;;;;5091808;28;20486;-67
2021/11/03 02:42:33;;;;;;;13.68;10.15;;;5.80;99.90;;;;;;5074234;28;20016;-68
2021/11/03 02:45:02;;;;;;;16.10;10.88;;;5.80;99.90;;;;;;5091800;28;20028;-68
2021/11/03 02:47:28;;;;;;;19.55;9.93;;;5.70;99.90;;;;;;5091687;28;20044;-68
2021/11/03 02:49:53;;;;;;;13.35;10.25;;;5.70;99.90;;;;;;5091959;28;20052;-68
2021/11/03 02:52:22;;;;;;;14.70;10.55;;;5.70;99.90;;;;;;5091730;28;20062;-68
2021/11/03 02:54:48;;;;;;;16.35;10.68;;;5.60;99.90;;;;;;5092980;28;20052;-68
2021/11/03 02:57:14;;;;;;;19.08;10.43;;;5.60;99.90;;;;;;5074754;28;20051;-68
2021/11/03 02:59:40;;;;;;;11.70;9.80;;;5.50;99.90;;;;;;5074656;28;20020;-68
2021/11/03 03:02:06;;;;;;;15.55;11.10;;;5.50;99.90;;;;;;5092856;28;20028;-68
2021/11/03 03:04:37;;;;;;;13.93;10.48;;;5.40;99.90;;;;;;5091641;28;20510;-68
2021/11/03 03:07:04;;;;;;;20.23;11.43;;;5.40;99.90;;;;;;5074676;28;20024;-68
2021/11/03 03:09:29;;;;;;;14.80;10.65;;;5.40;99.90;;;;;;5074783;28;20107;-68
2021/11/03 03:11:59;;;;;;;14.05;10.95;;;5.40;99.90;;;;;;5092800;28;20085;-70
2021/11/03 03:14:27;;;;;;;14.18;10.52;;;5.30;99.90;;;;;;5074789;28;20024;-67
2021/11/03 03:16:53;;;;;;;17.75;11.35;;;5.30;99.90;;;;;;5074673;28;20016;-68
2021/11/03 03:19:19;;;;;;;15.70;11.65;;;5.30;99.90;;;;;;5074474;28;20192;-68
2021/11/03 03:21:45;;;;;;;14.00;10.30;;;5.20;99.90;;;;;;5074642;28;20024;-68
2021/11/03 03:24:12;;;;;;;15.02;11.13;;;5.20;99.90;;;;;;5091268;28;20593;-68
2021/11/03 03:26:39;;;;;;;17.70;11.07;;;5.20;99.90;;;;;;5091497;28;20154;-68
2021/11/03 03:29:05;;;;;;;13.88;11.25;;;5.20;99.90;;;;;;5074515;28;20035;-68
2021/11/03 03:31:32;;;;;;;16.58;11.60;;;5.20;99.90;;;;;;5091409;28;20016;-67
2021/11/03 03:33:59;;;;;;;14.10;11.00;;;5.20;99.90;;;;;;5074355;28;20039;-68
2021/11/03 03:36:25;;;;;;;14.30;10.15;;;5.20;99.90;;;;;;5091389;28;20074;-68
2021/11/03 03:38:51;;;;;;;13.48;10.90;;;5.10;99.90;;;;;;5074336;28;20108;-69
2021/11/03 03:41:18;;;;;;;19.52;12.57;;;5.10;99.90;;;;;;5057924;28;20027;-69
2021/11/03 03:43:44;;;;;;;14.18;11.10;;;5.10;99.90;;;;;;5074503;28;20032;-68
2021/11/03 03:46:11;;;;;;;14.02;11.07;;;5.10;99.90;;;;;;5074424;28;20073;-68
2021/11/03 03:48:37;;;;;;;15.98;10.43;;;5.10;99.90;;;;;;5091130;28;20031;-70
2021/11/03 03:51:03;;;;;;;17.13;10.80;;;5.10;99.90;;;;;;5091190;28;20020;-68
2021/11/03 03:53:29;;;;;;;14.45;10.73;;;5.10;99.90;;;;;;5074341;28;20525;-68
2021/11/03 03:55:54;;;;;;;16.08;11.18;;;5.20;99.90;;;;;;5077913;28;20052;-69
2021/11/03 03:58:20;;;;;;;15.23;11.23;;;5.20;99.90;;;;;;5077957;28;20097;-68
2021/11/03 04:00:50;;;;;;;17.88;11.85;;;5.20;99.90;;;;;;5078005;28;20149;-68
2021/11/03 04:03:17;;;;;;;15.05;11.07;;;5.30;99.90;;;;;;5094752;28;20066;-67
2021/11/03 04:05:45;;;;;;;14.40;11.38;;;5.30;99.90;;;;;;5061071;28;20119;-68
2021/11/03 04:08:12;;;;;;;17.10;12.50;;;5.30;99.90;;;;;;5096224;28;20107;-70
2021/11/03 04:10:39;;;;;;;18.15;11.52;;;5.30;99.90;;;;;;5096122;28;20016;-69
2021/11/03 04:13:05;;;;;;;15.15;12.18;;;5.30;99.90;;;;;;5094762;28;20027;-69
2021/11/03 04:15:31;;;;;;;18.85;11.20;;;5.30;99.90;;;;;;5094799;28;20020;-70
2021/11/03 04:17:57;;;;;;;16.05;11.07;;;5.30;99.90;;;;;;5094292;28;20059;-68
2021/11/03 04:20:22;;;;;;;15.27;10.68;;;5.40;99.90;;;;;;5095276;28;20098;-69
2021/11/03 04:22:48;;;;;;;15.68;10.77;;;5.20;99.90;;;;;;5077233;28;20031;-69
2021/11/03 04:25:14;;;;;;;15.95;11.45;;;5.20;99.90;;;;;;5077381;28;20032;-69
2021/11/03 04:27:41;;;;;;;14.25;10.32;;;5.20;99.90;;;;;;5077153;28;20471;-68
2021/11/03 04:30:07;;;;;;;14.05;9.95;;;5.20;99.90;;;;;;5077294;28;20081;-70
2021/11/03 04:32:33;;;;;;;14.55;11.23;;;5.10;99.90;;;;;;5094299;28;20021;-69
2021/11/03 04:34:59;;;;;;;16.92;11.15;;;5.10;99.90;;;;;;5077094;28;20498;-68
2021/11/03 04:37:24;;;;;;;15.73;11.27;;;5.10;99.90;;;;;;5093803;28;20430;-69
2021/11/03 04:39:50;;;;;;;15.85;11.15;;;5.00;99.90;;;;;;5094129;28;20530;-70
2021/11/03 04:42:16;;;;;;;14.25;10.73;;;5.00;99.90;;;;;;5093955;28;20028;-69
2021/11/03 04:44:41;;;;;;;17.13;11.27;;;5.00;99.90;;;;;;5093961;28;20059;-68
2021/11/03 04:47:07;;;;;;;16.77;9.88;;;5.00;99.90;;;;;;5093900;28;20388;-69
2021/11/03 04:49:33;;;;;;;14.25;9.45;;;5.00;99.90;;;;;;5076790;28;20031;-69
2021/11/03 04:51:58;;;;;;;15.02;11.38;;;5.00;99.90;;;;;;5095309;28;20016;-69
2021/11/03 04:54:24;;;;;;;14.38;10.20;;;4.90;99.90;;;;;;5093537;28;20032;-69
2021/11/03 04:56:50;;;;;;;15.45;11.13;;;4.90;99.90;;;;;;5076567;28;20022;-69
2021/11/03 04:59:17;;;;;;;14.02;11.18;;;4.90;99.90;;;;;;5059926;28;20038;-69
2021/11/03 05:01:42;;;;;;;14.20;10.98;;;4.80;99.90;;;;;;5093414;28;20016;-68
2021/11/03 05:04:08;;;;;;;13.30;10.73;;;4.80;99.90;;;;;;5076585;28;20034;-70
2021/11/03 05:06:35;;;;;;;18.13;10.52;;;4.80;99.90;;;;;;5093989;28;20029;-69
2021/11/03 05:09:03;;;;;;;15.48;11.75;;;4.70;99.90;;;;;;5059999;28;20089;-69
2021/11/03 05:11:29;;;;;;;15.45;11.00;;;4.80;99.90;;;;;;5093452;28;20012;-70
2021/11/03 05:13:56;;;;;;;14.88;11.27;;;4.90;99.90;;;;;;5076262;28;20394;-68
2021/11/03 05:16:23;;;;;;;16.83;10.38;;;4.90;99.90;;;;;;5093249;28;20390;-69
2021/11/03 05:18:48;;;;;;;14.02;11.32;;;4.90;99.90;;;;;;5092743;28;20521;-68
2021/11/03 05:21:14;;;;;;;16.10;10.77;;;5.00;99.90;;;;;;5093225;28;20048;-69
2021/11/03 05:23:42;;;;;;;14.27;10.38;;;4.90;99.90;;;;;;5094561;28;20578;-68
2021/11/03 05:26:09;;;;;;;13.98;9.82;;;4.80;99.90;;;;;;5075968;28;20021;-70
2021/11/03 05:28:36;;;;;;;14.18;11.18;;;4.90;99.90;;;;;;5093146;28;20024;-68
2021/11/03 05:31:02;;;;;;;13.05;10.02;;;4.90;99.90;;;;;;5076256;28;20123;-68
2021/11/03 05:33:27;;;;;;;14.60;10.38;;;4.90;99.90;;;;;;5076175;28;20060;-71
2021/11/03 05:35:53;;;;;;;14.30;10.95;;;4.90;99.90;;;;;;5075919;28;20032;-73
2021/11/03 05:38:19;;;;;;;17.13;10.63;;;4.80;99.90;;;;;;5076004;28;20093;-74
2021/11/03 05:40:45;;;;;;;12.02;10.15;;;4.80;99.90;;;;;;5076065;28;20035;-74
2021/11/03 05:43:11;;;;;;;17.17;11.55;;;4.80;99.90;;;;;;5093087;28;20028;-72
2021/11/03 05:45:36;;;;;;;14.50;11.95;;;4.80;99.90;;;;;;5093022;28;20025;-73
2021/11/03 05:48:02;;;;;;;14.50;11.02;;;4.90;99.90;;;;;;5077876;28;20023;-72
2021/11/03 05:50:32;;;;;;;12.15;9.52;;;4.80;99.90;;;;;;5079443;28;20141;-71
2021/11/03 05:52:58;;;;;;;14.05;10.40;;;4.80;99.90;;;;;;5096262;28;20028;-72
2021/11/03 05:55:24;;;;;;;15.43;11.07;;;4.80;99.90;;;;;;5094068;28;20028;-71
2021/11/03 05:57:50;;;;;;;13.07;10.40;;;4.70;99.90;;;;;;5094033;28;20042;-73
2021/11/03 06:00:25;;;;;;;17.80;11.75;;;4.70;99.90;;;;;;5076209;28;20044;-74
2021/11/03 06:02:50;;;;;;;;;;;4.70;99.90;;;;;;5093382;28;20071;-73
2021/11/03 06:05:16;;;;;;;13.32;10.80;;;4.70;99.90;;;;;;5092693;28;19924;-69
2021/11/03 06:07:49;;;;;;;15.23;11.60;;;4.70;99.90;;;;;;5075972;28;20119;-68
2021/11/03 06:10:16;;;;;;;17.35;11.32;;;4.70;99.90;;;;;;5075837;28;20039;-67
2021/11/03 06:12:43;;;;;;;17.80;12.00;;;4.70;99.90;;;;;;5092354;28;20032;-69
2021/11/03 06:15:09;;;;;;;15.32;11.38;;;4.70;99.90;;;;;;5075630;28;20083;-68
2021/11/03 06:17:34;;;;;;;19.02;10.98;;;4.60;99.90;;;;;;5074669;28;20024;-68
2021/11/03 06:20:00;;;;;;;14.90;11.32;;;4.60;99.90;;;;;;5074858;28;20094;-68
2021/11/03 06:22:26;;;;;;;13.88;10.63;;;4.60;99.90;;;;;;5075337;28;20059;-68
2021/11/03 06:24:55;;;;;;;15.43;11.27;;;4.60;99.90;;;;;;5075201;28;20024;-69
2021/11/03 06:27:20;;;;;;;16.95;12.13;;;4.50;99.90;;;;;;5075634;28;20436;-69
2021/11/03 06:29:46;;;;;;;12.88;10.38;;;4.50;99.90;;;;;;5092264;28;20103;-69
2021/11/03 06:32:12;;;;;;;17.42;12.45;;;4.50;99.90;;;;;;5092048;28;20024;-69
2021/11/03 06:34:37;;;;;;;13.95;11.15;;;4.40;99.90;;;;;;5058634;28;20028;-68
2021/11/03 06:37:04;;;;;;;13.18;9.82;;;4.40;99.90;;;;;;5075032;28;20487;-70
2021/11/03 06:39:31;;;;;;;18.98;10.27;;;4.40;99.90;;;;;;5093526;28;20039;-69
2021/11/03 06:41:57;;;;;;;22.42;9.75;;;4.40;99.90;;;;;;5075322;28;20020;-69
2021/11/03 06:44:23;;;;;;;15.32;9.93;;;4.40;99.90;;;;;;5091966;28;20570;-68
2021/11/03 06:46:49;;;;;;;40.58;11.45;;;4.40;99.90;;;;;;5091983;28;20048;-68
2021/11/03 06:49:16;;;;;;;26.77;10.45;;;4.40;99.90;;;;;;5091967;28;20020;-68
2021/11/03 06:51:42;;;;;;;14.43;8.77;;;4.40;99.90;;;;;;5091765;28;20032;-68
2021/11/03 06:54:07;;;;;;;17.85;9.55;;;4.60;99.90;;;;;;5075239;28;20035;-69
2021/11/03 06:56:34;;;;;;;24.30;8.95;;;4.40;99.90;;;;;;5074847;28;20055;-69
2021/11/03 06:59:00;;;;;;;17.83;8.85;;;4.40;99.90;;;;;;5091765;28;20036;-67
2021/11/03 07:01:26;;;;;;;14.20;7.82;;;4.40;99.90;;;;;;5092933;28;20036;-70
2021/11/03 07:03:51;;;;;;;12.48;8.73;;;4.50;99.90;;;;;;5074836;28;20486;-68
2021/11/03 07:06:17;;;;;;;16.83;8.65;;;4.50;99.90;;;;;;5074779;28;20039;-67
2021/11/03 07:08:43;;;;;;;16.70;7.75;;;4.50;99.90;;;;;;5091720;28;20502;-67
2021/11/03 07:11:10;;;;;;;11.38;8.52;;;4.50;99.90;;;;;;5091552;28;20490;-68
2021/11/03 07:13:36;;;;;;;18.13;8.32;;;4.50;99.90;;;;;;5091591;28;20036;-69
2021/11/03 07:16:02;;;;;;;14.52;8.77;;;4.40;99.90;;;;;;5074700;28;20029;-68
2021/11/03 07:18:28;;;;;;;9.75;8.52;;;4.40;99.90;;;;;;5074775;28;20047;-68
2021/11/03 07:20:54;;;;;;;12.23;7.13;;;4.50;99.90;;;;;;5074800;28;20076;-67
2021/11/03 07:23:21;;;;;;;9.75;7.80;;;4.50;99.90;;;;;;5091592;28;20393;-67
2021/11/03 07:25:47;;;;;;;18.40;9.95;;;4.60;99.90;;;;;;5075233;28;20024;-68
2021/11/03 07:28:14;;;;;;;19.85;10.70;;;4.60;99.90;;;;;;5091676;28;20498;-71
2021/11/03 07:30:41;;;;;;;15.75;10.02;;;4.70;99.90;;;;;;5078095;28;20024;-68
2021/11/03 07:33:08;;;;;;;13.18;9.55;;;4.80;99.90;;;;;;5078521;28;20471;-69
2021/11/03 07:35:35;;;;;;;9.60;7.72;;;4.90;99.90;;;;;;5096683;28;20030;-69
2021/11/03 07:38:01;;;;;;;8.90;6.70;;;5.00;99.90;;;;;;5095196;28;20059;-71
2021/11/03 07:40:30;;;;;;;8.43;7.53;;;5.10;99.90;;;;;;5078283;28;20028;-72
2021/11/03 07:42:58;;;;;;;9.40;6.60;;;5.30;99.90;;;;;;5095611;28;20035;-71
2021/11/03 07:45:25;;;;;;;8.98;7.20;;;5.70;99.90;;;;;;5078339;28;20024;-70
2021/11/03 07:47:51;;;;;;;9.05;7.25;;;6.10;99.90;;;;;;5078422;28;20398;-71
2021/11/03 07:50:21;;;;;;;7.55;6.75;;;6.60;99.90;;;;;;5078375;28;20013;-71
2021/11/03 07:52:47;;;;;;;8.30;7.13;;;7.30;99.90;;;;;;5095516;28;20058;-73
2021/11/03 07:55:13;;;;;;;7.95;6.30;;;8.10;99.90;;;;;;5078521;28;20107;-70
2021/11/03 07:57:39;;;;;;;9.90;7.07;;;8.70;99.90;;;;;;5095394;28;20106;-71
2021/11/03 08:00:10;;;;;;;6.50;5.68;;;9.20;99.90;;;;;;5078193;28;20024;-70
2021/11/03 08:02:36;;;;;;;7.00;6.00;;;9.60;99.90;;;;;;5095017;28;20348;-72
2021/11/03 08:05:02;;;;;;;10.27;5.85;;;9.70;99.90;;;;;;5096431;28;20130;-73
2021/11/03 08:07:28;;;;;;;6.78;5.47;;;9.80;99.90;;;;;;5095302;28;20043;-72
2021/11/03 08:09:53;;;;;;;8.60;6.50;;;9.90;99.90;;;;;;5094909;28;20113;-70
2021/11/03 08:12:19;;;;;;;6.85;5.53;;;10.10;99.90;;;;;;5095114;28;20386;-70
2021/11/03 08:14:45;;;;;;;5.93;5.32;;;10.60;99.90;;;;;;5078078;28;20119;-71
2021/11/03 08:17:16;;;;;;;7.50;5.85;;;11.30;99.90;;;;;;5094680;28;20474;-70
2021/11/03 08:19:48;;;;;;;6.85;5.38;;;12.00;99.90;;;;;;5094574;28;20131;-68
2021/11/03 08:22:20;;;;;;;9.63;5.07;;;12.80;99.90;;;;;;5095031;28;20103;-69
2021/11/03 08:24:46;;;;;;;5.15;4.65;;;13.50;99.90;;;;;;5078424;28;20036;-69
2021/11/03 08:27:12;;;;;;;5.32;4.82;;;14.30;99.90;;;;;;5094875;28;20035;-70
2021/11/03 08:29:39;;;;;;;5.50;4.50;;;15.00;99.90;;;;;;5078293;28;20045;-71
2021/11/03 08:32:06;;;;;;;9.23;5.13;;;15.50;99.90;;;;;;5078297;28;20065;-69
2021/11/03 08:34:32;;;;;;;6.05;5.18;;;16.10;99.90;;;;;;5094613;28;20024;-71
2021/11/03 08:37:03;;;;;;;4.80;4.38;;;16.40;99.90;;;;;;5077550;28;20024;-70
2021/11/03 08:39:29;;;;;;;4.63;4.05;;;16.30;99.90;;;;;;5094270;28;20115;-71
2021/11/03 08:41:54;;;;;;;5.82;5.20;;;16.10;99.90;;;;;;5093257;28;20062;-70
2021/11/03 08:44:20;;;;;;;6.85;5.10;;;16.20;99.90;;;;;;5077441;28;20028;-70
2021/11/03 08:46:46;;;;;;;7.85;5.40;;;16.70;99.90;;;;;;5077390;28;20588;-72
2021/11/03 08:49:11;;;;;;;5.72;4.55;;;17.20;99.90;;;;;;5096106;28;20031;-72
2021/11/03 08:51:39;;;;;;;6.00;4.65;;;17.50;99.90;;;;;;5096325;28;20089;-74
2021/11/03 08:54:07;;;;;;;5.93;5.30;;;17.60;99.90;;;;;;5079823;28;20428;-72
2021/11/03 08:56:35;;;;;;;6.88;4.95;;;17.80;99.90;;;;;;5095200;28;20023;-74
2021/11/03 08:59:03;;;;;;;5.15;4.28;;;17.90;99.90;;;;;;5095034;28;20492;-74
2021/11/03 09:01:29;;;;;;;6.88;5.32;;;17.70;99.90;;;;;;5095795;28;20103;-75
2021/11/03 09:03:55;;;;;;;6.90;5.15;;;17.50;99.90;;;;;;5082329;28;20055;-71
2021/11/03 09:06:20;;;;;;;8.38;5.10;;;17.20;99.90;;;;;;5081474;28;20115;-75
2021/11/03 09:08:47;;;;;;;5.43;4.93;;;17.10;99.90;;;;;;5079315;28;20028;-73
2021/11/03 09:11:13;;;;;;;4.50;3.85;;;17.40;99.90;;;;;;5096785;28;20105;-74
2021/11/03 09:13:39;;;;;;;4.93;4.35;;;17.50;99.90;;;;;;5095974;28;20458;-71
2021/11/03 09:16:05;;;;;;;4.78;4.28;;;17.40;99.90;;;;;;5096919;28;20028;-74
2021/11/03 09:18:33;;;;;;;4.78;4.32;;;17.20;99.90;;;;;;5096027;28;20040;-73
2021/11/03 09:20:59;;;;;;;5.05;4.25;;;16.80;99.90;;;;;;5093270;28;20418;-70
2021/11/03 09:23:25;;;;;;;4.68;4.28;;;16.30;99.90;;;;;;5076600;28;20024;-71
2021/11/03 09:25:53;;;;;;;4.47;3.63;;;15.90;99.90;;;;;;5093784;28;20017;-71
2021/11/03 09:28:21;;;;;;;4.50;4.10;;;15.60;99.90;;;;;;5094970;28;20375;-70
2021/11/03 09:30:47;;;;;;;6.18;4.30;;;15.20;99.90;;;;;;5093544;28;20099;-71
2021/11/03 09:33:12;;;;;;;4.78;3.95;;;14.90;99.90;;;;;;5093422;28;20398;-70
2021/11/03 09:35:47;;;;;;;5.20;4.68;;;14.80;99.90;;;;;;5076559;28;20035;-70
2021/11/03 09:38:16;;;;;;;6.13;5.53;;;14.60;99.90;;;;;;5093209;28;20496;-72
2021/11/03 09:40:51;;;;;;;6.72;5.47;;;14.50;99.90;;;;;;5076408;28;20024;-70
2021/11/03 09:43:37;;;;;;;;;;;14.60;99.90;;;;;;5093852;28;20028;-70
2021/11/03 09:46:19;;;;;;;5.93;4.97;;;14.70;99.90;;;;;;5093701;28;19948;-71
2021/11/03 09:48:50;;;;;;;6.32;5.00;;;15.40;99.90;;;;;;5095761;28;20027;-70
2021/11/03 09:51:18;;;;;;;7.22;5.15;;;16.20;99.90;;;;;;5080361;28;20043;-68
2021/11/03 09:53:48;;;;;;;9.63;5.20;;;16.90;99.90;;;;;;5087645;28;20020;-72
2021/11/03 09:56:43;;;;;;;6.60;4.20;;;17.10;99.90;;;;;;5100303;28;20027;-70
2021/11/03 09:59:30;;;;;;;4.82;4.32;;;17.00;99.90;;;;;;5071185;28;20058;-70
2021/11/03 10:02:21;;;;;;;6.32;4.78;;;16.40;99.90;;;;;;5076614;28;20027;-72
2021/11/03 10:05:10;;;;;;;5.78;4.57;;;16.10;99.90;;;;;;5092753;28;20027;-69
2021/11/03 10:07:42;;;;;;;7.28;4.72;;;15.70;99.90;;;;;;5092530;28;20020;-71
2021/11/03 10:10:19;;;;;;;10.52;4.72;;;15.30;99.90;;;;;;5092728;28;20402;-70
2021/11/03 10:12:46;;;;;;;4.00;3.60;;;15.00;99.90;;;;;;5075816;28;20358;-71
2021/11/03 10:15:18;;;;;;;5.43;4.88;;;14.60;99.90;;;;;;5092665;28;20119;-71
2021/11/03 10:17:44;;;;;;;5.32;4.40;;;14.20;99.90;;;;;;5075652;28;20039;-70
2021/11/03 10:20:28;;;;;;;6.07;4.70;;;13.90;99.90;;;;;;5092273;28;20048;-69
2021/11/03 10:23:10;;;;;;;5.70;4.57;;;13.50;99.90;;;;;;5075279;28;20022;-70
2021/11/03 10:25:36;;;;;;;7.25;5.10;;;13.30;99.90;;;;;;5092357;28;20012;-70
2021/11/03 10:28:02;;;;;;;10.05;5.38;;;13.00;99.90;;;;;;5093736;28;20566;-71
2021/11/03 10:30:36;;;;;;;7.38;5.47;;;12.80;99.90;;;;;;5092244;28;20491;-70
2021/11/03 10:33:18;;;;;;;7.45;5.05;;;12.70;99.90;;;;;;5092262;28;20052;-70
2021/11/03 10:36:12;;;;;;;6.45;4.78;;;12.60;99.90;;;;;;5092360;28;20074;-71
2021/11/03 10:38:56;;;;;;;6.65;5.10;;;12.60;99.90;;;;;;5075525;28;20039;-71
2021/11/03 10:41:29;;;;;;;8.80;5.28;;;12.50;99.90;;;;;;5092247;28;20089;-70
2021/11/03 10:44:00;;;;;;;6.13;4.93;;;12.30;99.90;;;;;;5075369;28;20119;-72
2021/11/03 10:46:30;;;;;;;6.95;6.00;;;12.20;99.90;;;;;;5093408;28;20479;-72
2021/11/03 10:49:08;;;;;;;6.72;5.45;;;12.10;99.90;;;;;;5075706;28;20089;-71
2021/11/03 10:51:40;;;;;;;8.48;5.55;;;12.10;99.90;;;;;;5091806;28;20040;-71
2021/11/03 10:54:21;;;;;;;6.40;5.00;;;12.10;99.90;;;;;;5092509;28;20032;-71
2021/11/03 10:56:54;;;;;;;7.40;5.47;;;12.00;99.90;;;;;;5092395;28;20034;-70
2021/11/03 10:59:20;;;;;;;7.35;6.00;;;12.00;99.90;;;;;;5092327;28;20470;-70
2021/11/03 11:01:47;;;;;;;8.20;5.85;;;12.00;99.90;;;;;;5093549;28;20027;-70
2021/11/03 11:04:23;;;;;;;6.65;5.32;;;12.00;99.90;;;;;;5093208;28;20028;-70
2021/11/03 11:06:50;;;;;;;7.65;6.25;;;12.00;99.90;;;;;;5079167;28;20023;-73
2021/11/03 11:09:42;;;;;;;9.23;5.55;;;12.00;99.90;;;;;;5079207;28;20107;-70
2021/11/03 11:12:31;;;;;;;8.52;5.95;;;12.10;99.90;;;;;;5096758;28;20020;-71
2021/11/03 11:15:22;;;;;;;7.75;5.53;;;12.20;99.90;;;;;;5096210;28;20107;-72
2021/11/03 11:17:56;;;;;;;8.35;4.80;;;12.30;99.90;;;;;;5079511;28;20500;-71
2021/11/03 11:20:27;;;;;;;6.88;5.55;;;12.30;99.90;;;;;;5097488;28;20052;-72
2021/11/03 11:23:08;;;;;;;5.57;4.43;;;12.40;99.90;;;;;;5096422;28;20036;-74
2021/11/03 11:25:51;;;;;;;9.10;3.92;;;12.60;99.90;;;;;;5098442;28;20094;-74
2021/11/03 11:28:45;;;;;;;3.53;3.15;;;12.80;99.90;;;;;;5098509;28;20032;-73
2021/11/03 11:31:29;;;;;;;3.13;1.88;;;13.10;99.90;;;;;;5096802;28;20105;-69
2021/11/03 11:34:05;;;;;;;4.65;2.95;;;13.20;99.90;;;;;;5097746;28;20424;-76
2021/11/03 11:36:38;;;;;;;4.60;3.35;;;13.30;99.90;;;;;;5096320;28;20039;-75
2021/11/03 11:39:14;;;;;;;8.15;3.50;;;13.40;99.90;;;;;;5095545;28;20130;-73
2021/11/03 11:41:58;;;;;;;6.20;3.75;;;13.30;99.90;;;;;;5079416;28;20117;-75
2021/11/03 11:44:37;;;;;;;6.10;3.65;;;13.20;99.90;;;;;;5096993;28;20091;-74
2021/11/03 11:47:06;;;;;;;6.57;2.55;;;12.90;99.90;;;;;;5096221;28;20030;-72
2021/11/03 11:49:34;;;;;;;6.82;1.33;;;12.50;99.90;;;;;;5078457;28;20028;-72
2021/11/03 11:52:18;;;;;;;2.58;1.88;;;12.20;99.90;;;;;;5095633;28;20016;-71
2021/11/03 11:55:12;;;;;;;2.58;1.88;;;11.80;99.90;;;;;;5095289;28;20024;-74
2021/11/03 11:57:40;;;;;;;2.33;1.27;;;11.40;99.90;;;;;;5095398;28;20067;-72
2021/11/03 12:00:09;;;;;;;4.28;2.20;;;11.10;99.90;;;;;;5078856;28;20043;-73
2021/11/03 12:02:46;;;;;;;3.80;2.13;;;10.80;99.90;;;;;;5099415;28;20022;-73
2021/11/03 12:05:21;;;;;;;3.28;2.70;;;10.70;99.90;;;;;;5095778;28;20020;-77
2021/11/03 12:08:08;;;;;;;5.22;3.10;;;10.60;99.90;;;;;;5097578;28;20035;-69
2021/11/03 12:10:54;;;;;;;4.53;4.00;;;10.60;99.90;;;;;;5096271;28;20169;-74
2021/11/03 12:13:27;;;;;;;4.32;3.90;;;10.70;99.90;;;;;;5098282;28;20016;-78
2021/11/03 12:15:53;;;;;;;5.27;3.50;;;10.70;99.90;;;;;;5098524;28;20031;-75
2021/11/03 12:18:40;;;;;;;3.92;3.30;;;10.80;99.90;;;;;;5095524;28;20035;-76
2021/11/03 12:21:23;;;;;;;4.15;3.15;;;10.90;99.90;;;;;;5097637;28;20044;-73
2021/11/03 12:23:49;;;;;;;3.47;2.55;;;11.00;99.90;;;;;;5100869;28;20493;-80
2021/11/03 12:26:27;;;;;;;6.07;3.80;;;11.10;99.90;;;;;;5100692;28;20031;-73
2021/11/03 12:28:57;;;;;;;4.78;3.40;;;11.30;99.90;;;;;;5098075;28;20024;-82
2021/11/03 12:31:53;;;;;;;4.13;2.75;;;11.60;99.90;;;;;;5079534;28;20016;-71
2021/11/03 12:34:31;;;;;;;3.55;1.92;;;11.80;99.90;;;;;;5097509;28;20020;-73
2021/11/03 12:37:24;;;;;;;4.72;1.85;;;12.10;99.90;;;;;;5095720;28;20109;-72
2021/11/03 12:39:55;;;;;;;3.72;1.70;;;12.60;99.90;;;;;;5096811;28;20031;-69
2021/11/03 12:42:23;;;;;;;3.83;1.38;;;12.90;99.90;;;;;;5077302;28;20443;-69
2021/11/03 12:45:30;;;;;;;2.28;1.70;;;13.20;99.90;;;;;;5095552;28;20038;-69
2021/11/03 12:48:02;;;;;;;4.55;2.20;;;13.00;99.90;;;;;;5095463;28;20027;-76
2021/11/03 12:50:37;;;;;;;2.85;2.30;;;12.50;99.90;;;;;;5080365;28;20024;-73
2021/11/03 12:53:13;;;;;;;7.05;2.80;;;12.10;99.90;;;;;;5094455;28;20534;-71
2021/11/03 12:55:50;;;;;;;8.57;3.80;;;11.60;99.90;;;;;;5077509;28;20013;-72
2021/11/03 12:58:25;;;;;;;4.57;2.10;;;11.30;99.90;;;;;;5079520;28;20486;-76